Time;durP1;ratioP1;P1;durP2;ratioP2;P2;SDS_P1;SDS_P2;PMS_P1;PMS_P2;Temp;Humidity;BMP_temperature;BMP_pressure;BME280_temperature;BME280_humidity;BME280_pressure;Samples;Min_cycle;Max_cycle;Signal;HPM_P1;HPM_P2
2022/12/04 00:00:05;;;;;;;;;;;;;;;11.82;69.86;101600.19;1261185;23;641;-74
2022/12/04 00:00:55;;;;;;;;;;;;;;;11.81;69.08;101598.47;1261057;23;1906;-73
2022/12/04 00:01:46;;;;;;;;;;;;;;;11.81;69.84;101596.66;1261069;23;646;-74
2022/12/04 00:02:36;;;;;;;;;;;;;;;11.82;69.86;101597.53;1261215;23;634;-74
2022/12/04 00:03:27;;;;;;;;;;;;;;;11.82;69.20;101593.00;1261293;23;614;-73
2022/12/04 00:04:17;;;;;;;;;;;;;;;11.81;69.10;101588.66;1261116;23;626;-74
2022/12/04 00:05:07;;;;;;;;;;;;;;;11.80;69.15;101586.06;1262091;23;629;-74
2022/12/04 00:05:58;;;;;;;;;;;;;;;11.80;68.88;101584.25;1261329;23;614;-73
2022/12/04 00:06:48;;;;;;;;;;;;;;;11.80;68.92;101586.94;1261416;23;691;-73
2022/12/04 00:07:39;;;;;;;;;;;;;;;11.80;69.05;101586.06;1261302;23;594;-73
2022/12/04 00:08:29;;;;;;;;;;;;;;;11.80;69.75;101589.59;1261256;23;666;-73
2022/12/04 00:09:19;;;;;;;;;;;;;;;11.79;69.18;101589.69;1261220;23;606;-73
2022/12/04 00:10:10;;;;;;;;;;;;;;;11.79;69.75;101582.53;1261204;23;613;-73
2022/12/04 00:11:00;;;;;;;;;;;;;;;11.81;69.74;101590.47;1262010;23;637;-73
2022/12/04 00:11:51;;;;;;;;;;;;;;;11.81;69.12;101591.31;1261233;23;657;-73
2022/12/04 00:12:41;;;;;;;;;;;;;;;11.80;69.15;101588.75;1261079;23;661;-73
2022/12/04 00:13:31;;;;;;;;;;;;;;;11.79;68.98;101584.34;1262193;23;632;-73
2022/12/04 00:14:22;;;;;;;;;;;;;;;11.79;69.61;101585.22;1261209;23;638;-73
2022/12/04 00:15:12;;;;;;;;;;;;;;;11.79;68.83;101589.69;1262032;23;629;-73
2022/12/04 00:16:03;;;;;;;;;;;;;;;11.78;68.85;101590.63;1261201;23;618;-73
2022/12/04 00:16:53;;;;;;;;;;;;;;;11.77;69.89;101587.09;1261241;23;653;-73
2022/12/04 00:17:44;;;;;;;;;;;;;;;11.78;69.52;101582.63;1261164;23;658;-73
2022/12/04 00:18:34;;;;;;;;;;;;;;;11.77;69.73;101591.59;1262008;23;617;-73
2022/12/04 00:19:24;;;;;;;;;;;;;;;11.76;68.97;101589.84;1261177;23;685;-73
2022/12/04 00:20:15;;;;;;;;;;;;;;;11.76;68.96;101596.06;1262246;23;650;-73
2022/12/04 00:21:06;;;;;;;;;;;;;;;11.77;69.54;101595.13;1260622;23;1928;-74
2022/12/04 00:21:56;;;;;;;;;;;;;;;11.78;68.98;101595.97;1262031;23;652;-73
2022/12/04 00:22:47;;;;;;;;;;;;;;;11.75;69.66;101599.66;1261191;23;630;-73
2022/12/04 00:23:37;;;;;;;;;;;;;;;11.76;69.50;101590.72;1261173;23;647;-73
2022/12/04 00:24:28;;;;;;;;;;;;;;;11.75;69.44;101590.78;1261088;23;602;-73
2022/12/04 00:25:18;;;;;;;;;;;;;;;11.74;69.89;101592.59;1261197;23;642;-73
2022/12/04 00:26:08;;;;;;;;;;;;;;;11.75;69.83;101588.09;1261282;23;627;-73
2022/12/04 00:26:59;;;;;;;;;;;;;;;11.76;68.88;101588.06;1261066;23;631;-73
2022/12/04 00:27:49;;;;;;;;;;;;;;;11.78;69.39;101593.31;1261195;23;670;-73
2022/12/04 00:28:40;;;;;;;;;;;;;;;11.76;68.89;101590.72;1261105;23;587;-73
2022/12/04 00:29:30;;;;;;;;;;;;;;;11.75;68.93;101588.97;1262136;23;748;-73
2022/12/04 00:30:21;;;;;;;;;;;;;;;11.74;68.98;101592.59;1262009;23;606;-73
2022/12/04 00:31:11;;;;;;;;;;;;;;;11.73;69.42;101590.00;1261153;23;661;-73
2022/12/04 00:32:01;;;;;;;;;;;;;;;11.75;69.65;101590.78;1261122;23;638;-73
2022/12/04 00:32:52;;;;;;;;;;;;;;;11.72;69.23;101591.81;1261314;23;1121;-73
2022/12/04 00:33:42;;;;;;;;;;;;;;;11.73;69.30;101595.34;1261841;23;680;-73
2022/12/04 00:34:33;;;;;;;;;;;;;;;11.73;68.76;101592.66;1261229;23;620;-73
2022/12/04 00:35:23;;;;;;;;;;;;;;;11.71;69.45;101595.44;1261208;23;689;-73
2022/12/04 00:36:14;;;;;;;;;;;;;;;11.72;69.46;101590.94;1261130;23;677;-73
2022/12/04 00:37:04;;;;;;;;;;;;;;;11.72;69.72;101591.81;1261188;23;599;-74
2022/12/04 00:37:54;;;;;;;;;;;;;;;11.73;69.54;101598.00;1261267;23;588;-73
2022/12/04 00:38:45;;;;;;;;;;;;;;;11.74;69.17;101591.72;1261214;23;642;-73
2022/12/04 00:39:35;;;;;;;;;;;;;;;11.73;69.27;101584.66;1261927;23;676;-73
2022/12/04 00:40:26;;;;;;;;;;;;;;;11.72;69.76;101583.78;1261066;23;839;-71
2022/12/04 00:41:16;;;;;;;;;;;;;;;11.73;69.52;101587.31;1261998;23;657;-71
2022/12/04 00:42:07;;;;;;;;;;;;;;;11.72;69.17;101589.13;1261116;23;606;-71
2022/12/04 00:42:57;;;;;;;;;;;;;;;11.72;69.52;101589.13;1256623;23;700;-71
2022/12/04 00:43:47;;;;;;;;;;;;;;;11.72;69.75;101582.94;1254832;23;646;-71
2022/12/04 00:44:38;;;;;;;;;;;;;;;11.71;69.17;101582.06;1260991;23;673;-71
2022/12/04 00:45:28;;;;;;;;;;;;;;;11.72;69.19;101581.13;1261039;23;673;-71
2022/12/04 00:46:19;;;;;;;;;;;;;;;11.70;68.95;101583.03;1256639;23;651;-71
2022/12/04 00:47:09;;;;;;;;;;;;;;;11.72;69.29;101577.59;1254914;23;646;-71
2022/12/04 00:47:59;;;;;;;;;;;;;;;11.71;69.55;101576.75;1260899;23;635;-71
2022/12/04 00:48:50;;;;;;;;;;;;;;;11.72;69.67;101574.94;1261072;23;669;-71
2022/12/04 00:49:40;;;;;;;;;;;;;;;11.72;69.72;101572.25;1261275;23;619;-71
2022/12/04 00:50:31;;;;;;;;;;;;;;;11.73;69.71;101573.97;1262009;23;649;-71
2022/12/04 00:51:21;;;;;;;;;;;;;;;11.71;69.64;101568.72;1261958;23;673;-71
2022/12/04 00:52:12;;;;;;;;;;;;;;;11.72;68.85;101573.13;1262097;23;626;-71
2022/12/04 00:53:02;;;;;;;;;;;;;;;11.71;68.80;101570.53;1261266;23;688;-71
2022/12/04 00:53:53;;;;;;;;;;;;;;;11.71;68.95;101573.22;1261986;23;622;-71
2022/12/04 00:54:43;;;;;;;;;;;;;;;11.70;69.42;101568.81;1261249;23;640;-71
2022/12/04 00:55:33;;;;;;;;;;;;;;;11.70;69.43;101574.16;1261262;23;622;-71
2022/12/04 00:56:24;;;;;;;;;;;;;;;11.70;69.67;101574.16;1261045;23;614;-72
2022/12/04 00:57:14;;;;;;;;;;;;;;;11.69;68.88;101570.63;1261158;23;685;-71
2022/12/04 00:58:06;;;;;;;;;;;;;;;11.71;69.49;101575.88;1261154;23;655;-72
2022/12/04 00:58:57;;;;;;;;;;;;;;;11.71;69.74;101565.19;1261169;23;609;-72
2022/12/04 00:59:47;;;;;;;;;;;;;;;11.68;69.82;101560.88;1261107;23;1023;-72
2022/12/04 01:00:37;;;;;;;;;;;;;;;11.68;68.97;101562.69;1261098;23;649;-72
2022/12/04 01:01:28;;;;;;;;;;;;;;;11.67;69.72;101558.31;1261254;23;634;-72
2022/12/04 01:02:18;;;;;;;;;;;;;;;11.67;69.15;101568.97;1261882;23;662;-72
2022/12/04 01:03:09;;;;;;;;;;;;;;;11.65;69.79;101561.06;1261066;23;709;-72
2022/12/04 01:03:59;;;;;;;;;;;;;;;11.66;69.60;101567.25;1261085;23;676;-72
2022/12/04 01:04:50;;;;;;;;;;;;;;;11.66;69.16;101565.44;1260591;23;750;-73
2022/12/04 01:05:40;;;;;;;;;;;;;;;11.68;69.45;101570.72;1261042;23;647;-72
2022/12/04 01:06:30;;;;;;;;;;;;;;;11.68;69.71;101568.91;1261107;23;629;-72
2022/12/04 01:07:21;;;;;;;;;;;;;;;11.68;68.80;101562.69;1262008;23;633;-72
2022/12/04 01:08:11;;;;;;;;;;;;;;;11.67;69.66;101560.97;1262197;23;645;-74
2022/12/04 01:09:02;;;;;;;;;;;;;;;11.66;69.44;101567.25;1261177;23;602;-72
2022/12/04 01:09:52;;;;;;;;;;;;;;;11.67;69.04;101568.97;1261293;23;676;-72
2022/12/04 01:10:42;;;;;;;;;;;;;;;11.66;69.78;101568.13;1261088;23;684;-73
2022/12/04 01:11:33;;;;;;;;;;;;;;;11.66;68.92;101568.13;1261015;23;602;-73
2022/12/04 01:12:23;;;;;;;;;;;;;;;11.67;69.03;101564.50;1261250;23;622;-73
2022/12/04 01:13:14;;;;;;;;;;;;;;;11.65;69.69;101566.41;1261950;23;675;-71
2022/12/04 01:14:04;;;;;;;;;;;;;;;11.67;69.49;101568.97;1261971;23;621;-71
2022/12/04 01:14:55;;;;;;;;;;;;;;;11.67;68.96;101564.50;1261023;23;649;-71
2022/12/04 01:15:46;;;;;;;;;;;;;;;11.66;69.06;101569.94;1261127;23;612;-73
2022/12/04 01:16:36;;;;;;;;;;;;;;;11.64;69.45;101569.19;1261144;23;696;-73
2022/12/04 01:17:27;;;;;;;;;;;;;;;11.65;69.06;101565.53;1261129;23;661;-73
2022/12/04 01:18:17;;;;;;;;;;;;;;;11.66;69.46;101569.94;1261170;23;661;-73
2022/12/04 01:19:08;;;;;;;;;;;;;;;11.65;68.92;101566.41;1260564;23;618;-71
2022/12/04 01:19:58;;;;;;;;;;;;;;;11.65;69.63;101561.06;1262005;23;621;-71
2022/12/04 01:20:48;;;;;;;;;;;;;;;11.66;68.96;101561.91;1261125;23;1901;-71
2022/12/04 01:21:39;;;;;;;;;;;;;;;11.65;68.78;101568.22;1261075;23;649;-71
2022/12/04 01:22:29;;;;;;;;;;;;;;;11.65;69.02;101565.53;1261856;23;650;-71
2022/12/04 01:23:20;;;;;;;;;;;;;;;11.65;68.92;101573.56;1262085;23;649;-71
2022/12/04 01:24:10;;;;;;;;;;;;;;;11.66;68.91;101567.25;1261065;23;638;-71
2022/12/04 01:25:01;;;;;;;;;;;;;;;11.63;69.55;101571.00;1262058;23;673;-71
2022/12/04 01:25:51;;;;;;;;;;;;;;;11.62;69.86;101566.59;1261208;23;599;-71
2022/12/04 01:26:41;;;;;;;;;;;;;;;11.64;69.08;101574.53;1261053;23;630;-72
2022/12/04 01:27:32;;;;;;;;;;;;;;;11.64;68.90;101571.84;1261147;23;615;-71
2022/12/04 01:28:22;;;;;;;;;;;;;;;11.63;68.83;101567.47;1261775;23;689;-71
2022/12/04 01:29:13;;;;;;;;;;;;;;;11.64;69.61;101569.19;1261169;23;688;-71
2022/12/04 01:30:03;;;;;;;;;;;;;;;11.63;69.47;101567.47;1262056;23;633;-71
2022/12/04 01:30:54;;;;;;;;;;;;;;;11.64;68.71;101563.84;1261228;23;645;-71
2022/12/04 01:31:44;;;;;;;;;;;;;;;11.62;68.85;101571.94;1261109;23;573;-71
2022/12/04 01:32:34;;;;;;;;;;;;;;;11.64;68.88;101569.19;1261857;23;649;-72
2022/12/04 01:33:25;;;;;;;;;;;;;;;11.61;69.00;101564.88;1261047;23;630;-72
2022/12/04 01:34:15;;;;;;;;;;;;;;;11.62;69.24;101557.75;1261095;23;618;-72
2022/12/04 01:35:06;;;;;;;;;;;;;;;11.61;69.71;101562.22;1261085;23;646;-71
2022/12/04 01:35:56;;;;;;;;;;;;;;;11.60;69.53;101562.31;1261063;23;613;-72
2022/12/04 01:36:47;;;;;;;;;;;;;;;11.60;69.42;101567.63;1261106;23;660;-72
2022/12/04 01:37:37;;;;;;;;;;;;;;;11.59;68.82;101564.09;1261019;23;693;-72
2022/12/04 01:38:28;;;;;;;;;;;;;;;11.60;68.95;101562.31;1261130;23;660;-72
2022/12/04 01:39:18;;;;;;;;;;;;;;;11.60;68.87;101560.50;1261246;23;658;-71
2022/12/04 01:40:08;;;;;;;;;;;;;;;11.59;68.91;101565.91;1261161;23;637;-72
2022/12/04 01:40:59;;;;;;;;;;;;;;;11.60;69.42;101567.63;1260787;23;1858;-71
2022/12/04 01:41:50;;;;;;;;;;;;;;;11.61;68.79;101564.03;1261055;23;602;-72
2022/12/04 01:42:40;;;;;;;;;;;;;;;11.59;68.83;101566.78;1261071;23;645;-72
2022/12/04 01:43:31;;;;;;;;;;;;;;;11.60;69.39;101573.84;1261846;23;634;-71
2022/12/04 01:44:21;;;;;;;;;;;;;;;11.60;68.88;101564.97;1261092;23;793;-72
2022/12/04 01:45:11;;;;;;;;;;;;;;;11.59;69.70;101565.91;1261116;23;638;-72
2022/12/04 01:46:02;;;;;;;;;;;;;;;11.60;69.14;101563.16;1256740;23;676;-72
2022/12/04 01:46:52;;;;;;;;;;;;;;;11.60;69.61;101567.63;1254733;23;665;-72
2022/12/04 01:47:43;;;;;;;;;;;;;;;11.61;69.03;101569.34;1260917;23;658;-72
2022/12/04 01:48:33;;;;;;;;;;;;;;;11.60;68.96;101565.81;1260968;23;649;-72
2022/12/04 01:49:23;;;;;;;;;;;;;;;11.60;68.97;101567.63;1261113;23;653;-72
2022/12/04 01:50:14;;;;;;;;;;;;;;;11.58;69.50;101570.38;1260925;23;674;-72
2022/12/04 01:51:04;;;;;;;;;;;;;;;11.58;69.48;101559.72;1261923;23;649;-72
2022/12/04 01:51:55;;;;;;;;;;;;;;;11.57;69.31;101568.66;1262031;23;614;-72
2022/12/04 01:52:45;;;;;;;;;;;;;;;11.59;69.62;101571.25;1261847;23;649;-72
2022/12/04 01:53:36;;;;;;;;;;;;;;;11.56;68.60;101571.44;1261151;23;650;-72
2022/12/04 01:54:27;;;;;;;;;;;;;;;11.57;69.03;101570.47;1260990;23;637;-72
2022/12/04 01:55:17;;;;;;;;;;;;;;;11.58;68.90;101558.84;1261150;23;630;-72
2022/12/04 01:56:08;;;;;;;;;;;;;;;11.58;69.75;101569.53;1261104;23;594;-71
2022/12/04 01:56:58;;;;;;;;;;;;;;;11.58;69.00;101570.38;1261096;23;654;-71
2022/12/04 01:57:48;;;;;;;;;;;;;;;11.59;68.74;101563.25;1261070;23;650;-71
2022/12/04 01:58:39;;;;;;;;;;;;;;;11.58;69.09;101558.84;1260950;23;630;-71
2022/12/04 01:59:29;;;;;;;;;;;;;;;11.58;68.98;101564.19;1261087;23;661;-72
2022/12/04 02:00:20;;;;;;;;;;;;;;;11.56;69.24;101560.75;1261125;23;669;-71
2022/12/04 02:01:10;;;;;;;;;;;;;;;11.57;69.31;101565.13;1261133;23;1901;-71
2022/12/04 02:02:00;;;;;;;;;;;;;;;11.56;69.64;101568.75;1260959;23;630;-71
2022/12/04 02:02:51;;;;;;;;;;;;;;;11.57;69.38;101559.81;1261434;23;701;-71
2022/12/04 02:03:41;;;;;;;;;;;;;;;11.56;68.67;101566.09;1261082;23;759;-71
2022/12/04 02:04:32;;;;;;;;;;;;;;;11.56;69.02;101563.41;1261005;23;626;-71
2022/12/04 02:05:22;;;;;;;;;;;;;;;11.57;69.06;101557.13;1261024;23;602;-71
2022/12/04 02:06:12;;;;;;;;;;;;;;;11.55;69.56;101567.03;1261831;23;641;-71
2022/12/04 02:07:03;;;;;;;;;;;;;;;11.55;69.27;101573.22;1261045;23;645;-71
2022/12/04 02:07:53;;;;;;;;;;;;;;;11.55;69.42;101565.22;1261144;23;701;-71
2022/12/04 02:08:44;;;;;;;;;;;;;;;11.57;69.32;101578.50;1261228;23;658;-72
2022/12/04 02:09:34;;;;;;;;;;;;;;;11.56;69.38;101571.44;1261165;23;634;-72
2022/12/04 02:10:26;;;;;;;;;;;;;;;11.54;69.66;101576.00;1261061;23;645;-72
2022/12/04 02:11:16;;;;;;;;;;;;;;;11.55;69.67;101575.03;1261029;23;622;-72
2022/12/04 02:12:06;;;;;;;;;;;;;;;11.54;69.09;101579.53;1261202;23;642;-72
2022/12/04 02:12:57;;;;;;;;;;;;;;;11.55;69.46;101572.38;1261991;23;625;-71
2022/12/04 02:13:47;;;;;;;;;;;;;;;11.55;68.90;101575.03;1261100;23;681;-71
2022/12/04 02:14:38;;;;;;;;;;;;;;;11.54;68.86;101573.31;1261048;23;615;-71
2022/12/04 02:15:28;;;;;;;;;;;;;;;11.54;69.13;101574.19;1261092;23;606;-71
2022/12/04 02:16:19;;;;;;;;;;;;;;;11.55;68.81;101585.72;1261026;23;630;-72
2022/12/04 02:17:09;;;;;;;;;;;;;;;11.54;69.47;101570.66;1260583;23;606;-71
2022/12/04 02:17:59;;;;;;;;;;;;;;;11.54;69.05;101573.31;1261034;23;654;-71
2022/12/04 02:18:50;;;;;;;;;;;;;;;11.53;69.52;101569.78;1261895;23;626;-72
2022/12/04 02:19:40;;;;;;;;;;;;;;;11.52;68.84;101570.72;1261835;23;673;-71
2022/12/04 02:20:31;;;;;;;;;;;;;;;11.53;68.99;101571.59;1261090;23;622;-71
2022/12/04 02:21:21;;;;;;;;;;;;;;;11.53;68.96;101566.25;1256474;23;677;-71
2022/12/04 02:22:12;;;;;;;;;;;;;;;11.53;69.28;101568.94;1254763;23;598;-71
2022/12/04 02:23:02;;;;;;;;;;;;;;;11.54;69.49;101562.63;1260961;23;646;-71
2022/12/04 02:23:52;;;;;;;;;;;;;;;11.53;69.70;101563.59;1261771;23;699;-71
2022/12/04 02:24:43;;;;;;;;;;;;;;;11.55;69.40;101564.38;1261009;23;701;-71
2022/12/04 02:25:33;;;;;;;;;;;;;;;11.54;68.65;101565.31;1261556;23;620;-71
2022/12/04 02:26:24;;;;;;;;;;;;;;;11.53;68.66;101564.44;1261505;23;681;-71
2022/12/04 02:27:14;;;;;;;;;;;;;;;11.51;69.34;101563.66;1261474;23;619;-72
2022/12/04 02:28:04;;;;;;;;;;;;;;;11.51;69.54;101562.81;1261360;23;637;-72
2022/12/04 02:28:55;;;;;;;;;;;;;;;11.50;69.78;101564.63;1261450;23;638;-72
2022/12/04 02:29:45;;;;;;;;;;;;;;;11.51;68.93;101565.47;1261516;23;665;-71
2022/12/04 02:30:36;;;;;;;;;;;;;;;11.51;68.60;101565.47;1261315;23;634;-71
2022/12/04 02:31:26;;;;;;;;;;;;;;;11.51;69.00;101558.34;1261339;23;594;-71
2022/12/04 02:32:17;;;;;;;;;;;;;;;11.49;69.11;101566.44;1261462;23;614;-71
2022/12/04 02:33:07;;;;;;;;;;;;;;;11.51;69.70;101568.16;1261517;23;632;-71
2022/12/04 02:33:58;;;;;;;;;;;;;;;11.52;69.27;101564.53;1261328;23;662;-71
2022/12/04 02:34:48;;;;;;;;;;;;;;;11.51;69.30;101562.81;1261485;23;621;-71
2022/12/04 02:35:39;;;;;;;;;;;;;;;11.49;68.59;101563.75;1262364;23;598;-71
2022/12/04 02:36:29;;;;;;;;;;;;;;;11.49;69.20;101563.75;1261176;23;640;-71
2022/12/04 02:37:20;;;;;;;;;;;;;;;11.51;69.55;101562.81;1261460;23;599;-71
2022/12/04 02:38:10;;;;;;;;;;;;;;;11.51;69.30;101560.16;1261388;23;610;-71
2022/12/04 02:39:01;;;;;;;;;;;;;;;11.49;69.52;101558.41;1261436;23;665;-71
2022/12/04 02:39:51;;;;;;;;;;;;;;;11.48;68.93;101562.03;1261338;23;622;-71
2022/12/04 02:40:41;;;;;;;;;;;;;;;11.52;68.59;101559.19;1261568;23;633;-71
2022/12/04 02:41:32;;;;;;;;;;;;;;;11.53;68.72;101560.91;1261414;23;716;-71
2022/12/04 02:42:22;;;;;;;;;;;;;;;11.52;68.57;101565.41;1261413;23;630;-71
2022/12/04 02:43:13;;;;;;;;;;;;;;;11.50;69.33;101567.28;1256976;23;645;-71
2022/12/04 02:44:03;;;;;;;;;;;;;;;11.51;68.81;101562.81;1255067;23;638;-71
2022/12/04 02:44:54;;;;;;;;;;;;;;;11.49;69.06;101566.44;1261355;23;651;-71
2022/12/04 02:45:44;;;;;;;;;;;;;;;11.50;68.82;101567.28;1261365;23;633;-72
2022/12/04 02:46:34;;;;;;;;;;;;;;;11.47;68.95;101568.31;1261345;23;658;-71
2022/12/04 02:47:25;;;;;;;;;;;;;;;11.48;68.57;101563.84;1261411;23;607;-72
2022/12/04 02:48:15;;;;;;;;;;;;;;;11.47;68.80;101560.31;1261346;23;1154;-72
2022/12/04 02:49:06;;;;;;;;;;;;;;;11.49;68.59;101562.91;1261263;23;1059;-72
2022/12/04 02:49:56;;;;;;;;;;;;;;;11.49;69.17;101569.09;1261510;23;646;-71
2022/12/04 02:50:47;;;;;;;;;;;;;;;11.48;69.61;101564.69;1261371;23;619;-71
2022/12/04 02:51:37;;;;;;;;;;;;;;;11.48;68.76;101566.50;1261284;23;646;-71
2022/12/04 02:52:27;;;;;;;;;;;;;;;11.47;69.39;101565.66;1262136;23;637;-71
2022/12/04 02:53:18;;;;;;;;;;;;;;;11.46;68.71;101571.94;1261435;23;607;-71
2022/12/04 02:54:08;;;;;;;;;;;;;;;11.47;68.93;101560.31;1256583;23;622;-71
2022/12/04 02:54:59;;;;;;;;;;;;;;;11.48;69.38;101569.19;1256008;23;677;-71
2022/12/04 02:55:49;;;;;;;;;;;;;;;11.49;69.33;101562.91;1261061;23;645;-71
2022/12/04 02:56:40;;;;;;;;;;;;;;;11.49;68.80;101565.56;1261323;23;670;-71
2022/12/04 02:57:30;;;;;;;;;;;;;;;11.48;69.32;101564.69;1261380;23;662;-71
2022/12/04 02:58:20;;;;;;;;;;;;;;;11.48;68.78;101574.53;1262265;23;648;-71
2022/12/04 02:59:11;;;;;;;;;;;;;;;11.47;69.18;101565.66;1261377;23;645;-71
2022/12/04 03:00:04;;;;;;;;;;;;;;;11.47;68.95;101567.47;1261339;23;597;-71
2022/12/04 03:00:55;;;;;;;;;;;;;;;11.46;69.11;101569.25;1260741;23;1901;-71
2022/12/04 03:01:45;;;;;;;;;;;;;;;11.45;69.35;101559.56;1261266;23;602;-71
2022/12/04 03:02:36;;;;;;;;;;;;;;;11.44;69.22;101557.84;1262200;23;664;-71
2022/12/04 03:03:27;;;;;;;;;;;;;;;11.44;68.89;101554.31;1261381;23;802;-71
2022/12/04 03:04:17;;;;;;;;;;;;;;;11.43;68.80;101556.13;1261208;23;685;-71
2022/12/04 03:05:07;;;;;;;;;;;;;;;11.44;69.43;101549.84;1261343;23;660;-71
2022/12/04 03:05:58;;;;;;;;;;;;;;;11.44;69.44;101556.97;1261252;23;680;-71
2022/12/04 03:06:48;;;;;;;;;;;;;;;11.43;69.53;101556.13;1261389;23;630;-72
2022/12/04 03:07:39;;;;;;;;;;;;;;;11.42;68.77;101551.72;1262208;23;625;-71
2022/12/04 03:08:29;;;;;;;;;;;;;;;11.43;69.23;101552.59;1261416;23;625;-71
2022/12/04 03:09:20;;;;;;;;;;;;;;;11.43;69.11;101553.47;1261315;23;626;-71
2022/12/04 03:10:10;;;;;;;;;;;;;;;11.43;69.03;101553.47;1256855;23;661;-71
2022/12/04 03:11:00;;;;;;;;;;;;;;;11.42;69.10;101557.06;1255042;23;653;-71
2022/12/04 03:11:51;;;;;;;;;;;;;;;11.42;68.77;101554.41;1261079;23;606;-71
2022/12/04 03:12:41;;;;;;;;;;;;;;;11.42;68.80;101561.53;1256619;23;681;-71
2022/12/04 03:13:32;;;;;;;;;;;;;;;11.42;69.42;101554.41;1255077;23;658;-71
2022/12/04 03:14:22;;;;;;;;;;;;;;;11.41;68.80;101547.34;1254940;23;610;-71
2022/12/04 03:15:13;;;;;;;;;;;;;;;11.42;68.93;101545.53;1253619;23;746;-71
2022/12/04 03:16:03;;;;;;;;;;;;;;;11.41;69.40;101541.16;1259788;23;654;-71
2022/12/04 03:16:54;;;;;;;;;;;;;;;11.41;69.02;101547.34;1261198;23;638;-72
2022/12/04 03:17:44;;;;;;;;;;;;;;;11.42;68.66;101538.38;1261229;23;618;-73
2022/12/04 03:18:35;;;;;;;;;;;;;;;11.42;69.20;101543.72;1261365;23;626;-72
2022/12/04 03:19:25;;;;;;;;;;;;;;;11.42;69.10;101546.41;1261314;23;670;-73
2022/12/04 03:20:15;;;;;;;;;;;;;;;11.43;68.55;101542.78;1261345;23;621;-72
2022/12/04 03:21:06;;;;;;;;;;;;;;;11.43;68.61;101540.13;1261271;23;1932;-72
2022/12/04 03:21:56;;;;;;;;;;;;;;;11.41;68.64;101542.00;1262204;23;625;-72
2022/12/04 03:22:47;;;;;;;;;;;;;;;11.42;68.45;101542.88;1261243;23;643;-72
2022/12/04 03:23:37;;;;;;;;;;;;;;;11.41;68.47;101539.34;1261215;23;665;-72
2022/12/04 03:24:27;;;;;;;;;;;;;;;11.41;68.48;101538.47;1261373;23;712;-72
2022/12/04 03:25:18;;;;;;;;;;;;;;;11.41;68.72;101538.47;1261324;23;645;-72
2022/12/04 03:26:08;;;;;;;;;;;;;;;11.40;68.81;101542.94;1261337;23;633;-72
2022/12/04 03:26:59;;;;;;;;;;;;;;;11.40;69.43;101540.28;1262213;23;669;-72
2022/12/04 03:27:49;;;;;;;;;;;;;;;11.41;69.29;101543.81;1261322;23;650;-72
2022/12/04 03:28:39;;;;;;;;;;;;;;;11.40;69.10;101545.63;1262200;23;656;-72
2022/12/04 03:29:30;;;;;;;;;;;;;;;11.40;68.60;101540.28;1260600;23;657;-72
2022/12/04 03:30:20;;;;;;;;;;;;;;;11.39;69.17;101537.69;1261265;23;693;-72
2022/12/04 03:31:11;;;;;;;;;;;;;;;11.41;69.31;101536.66;1261225;23;584;-73
2022/12/04 03:32:01;;;;;;;;;;;;;;;11.42;68.65;101540.19;1261300;23;585;-72
2022/12/04 03:32:52;;;;;;;;;;;;;;;11.40;69.02;101537.63;1262109;23;689;-73
2022/12/04 03:33:42;;;;;;;;;;;;;;;11.38;68.95;101534.16;1262233;23;642;-72
2022/12/04 03:34:33;;;;;;;;;;;;;;;11.38;68.97;101539.50;1261277;23;693;-73
2022/12/04 03:35:23;;;;;;;;;;;;;;;11.40;69.16;101540.28;1261264;23;622;-73
2022/12/04 03:36:14;;;;;;;;;;;;;;;11.40;69.40;101534.94;1261301;23;693;-73
2022/12/04 03:37:04;;;;;;;;;;;;;;;11.41;69.14;101536.66;1261255;23;729;-73
2022/12/04 03:37:54;;;;;;;;;;;;;;;11.41;68.86;101536.66;1261234;23;614;-73
2022/12/04 03:38:45;;;;;;;;;;;;;;;11.40;69.34;101536.75;1261345;23;653;-73
2022/12/04 03:39:35;;;;;;;;;;;;;;;11.39;68.92;101527.88;1262104;23;622;-73
2022/12/04 03:40:26;;;;;;;;;;;;;;;11.39;68.66;101527.88;1256634;23;696;-73
2022/12/04 03:41:16;;;;;;;;;;;;;;;11.41;68.72;101533.13;1254765;23;1938;-73
2022/12/04 03:42:06;;;;;;;;;;;;;;;11.39;69.16;101527.03;1261323;23;688;-73
2022/12/04 03:42:57;;;;;;;;;;;;;;;11.38;69.32;101526.16;1261307;23;688;-73
2022/12/04 03:43:47;;;;;;;;;;;;;;;11.38;69.38;101531.50;1256611;23;645;-74
2022/12/04 03:44:38;;;;;;;;;;;;;;;11.37;69.29;101524.44;1255073;23;603;-74
2022/12/04 03:45:28;;;;;;;;;;;;;;;11.37;68.68;101524.44;1261051;23;606;-73
2022/12/04 03:46:18;;;;;;;;;;;;;;;11.37;68.66;101526.25;1262162;23;645;-74
2022/12/04 03:47:10;;;;;;;;;;;;;;;11.36;68.81;101522.72;1256659;23;605;-74
2022/12/04 03:48:00;;;;;;;;;;;;;;;11.36;69.35;101524.53;1255034;23;630;-74
2022/12/04 03:48:50;;;;;;;;;;;;;;;11.38;68.90;101526.16;1260917;23;1042;-70
2022/12/04 03:49:41;;;;;;;;;;;;;;;11.39;68.88;101527.88;1261272;23;595;-72
2022/12/04 03:50:31;;;;;;;;;;;;;;;11.39;68.75;101527.88;1262031;23;666;-74
2022/12/04 03:51:22;;;;;;;;;;;;;;;11.39;68.98;101524.34;1261279;23;626;-74
2022/12/04 03:52:12;;;;;;;;;;;;;;;11.38;69.53;101520.81;1261356;23;618;-74
2022/12/04 03:53:03;;;;;;;;;;;;;;;11.37;69.11;101523.56;1261099;23;677;-74
2022/12/04 03:53:53;;;;;;;;;;;;;;;11.37;69.24;101523.56;1261283;23;626;-74
2022/12/04 03:54:43;;;;;;;;;;;;;;;11.34;68.78;101527.28;1261281;23;627;-74
2022/12/04 03:55:34;;;;;;;;;;;;;;;11.36;69.22;101528.06;1261940;23;622;-74
2022/12/04 03:56:24;;;;;;;;;;;;;;;11.34;69.37;101529.94;1261184;23;686;-74
2022/12/04 03:57:15;;;;;;;;;;;;;;;11.32;69.46;101529.16;1261397;23;617;-71
2022/12/04 03:58:05;;;;;;;;;;;;;;;11.33;69.28;101528.22;1261155;23;637;-71
2022/12/04 03:58:55;;;;;;;;;;;;;;;11.34;69.23;101529.94;1261428;23;689;-74
2022/12/04 03:59:46;;;;;;;;;;;;;;;11.33;69.14;101536.22;1261915;23;602;-74
2022/12/04 04:00:36;;;;;;;;;;;;;;;11.34;68.52;101532.63;1262281;23;641;-74
2022/12/04 04:01:27;;;;;;;;;;;;;;;11.34;69.31;101529.94;1261112;23;713;-74
2022/12/04 04:02:17;;;;;;;;;;;;;;;11.33;68.52;101538.91;1261251;23;669;-72
2022/12/04 04:03:07;;;;;;;;;;;;;;;11.34;68.88;101547.75;1262128;23;637;-72
2022/12/04 04:03:58;;;;;;;;;;;;;;;11.32;68.81;101547.84;1262098;23;594;-72
2022/12/04 04:04:48;;;;;;;;;;;;;;;11.31;69.30;101538.13;1261111;23;642;-72
2022/12/04 04:05:39;;;;;;;;;;;;;;;11.34;68.75;101539.75;1261147;23;614;-73
2022/12/04 04:06:29;;;;;;;;;;;;;;;11.34;69.04;101537.09;1261268;23;634;-73
2022/12/04 04:07:20;;;;;;;;;;;;;;;11.34;68.96;101534.41;1261018;23;662;-73
2022/12/04 04:08:26;;;;;;;;;;;;;;;11.33;69.20;101544.22;1261283;23;654;-73
2022/12/04 04:09:16;;;;;;;;;;;;;;;11.32;68.58;101545.19;1261221;23;615;-73
2022/12/04 04:10:06;;;;;;;;;;;;;;;11.33;69.62;101538.91;1262054;23;650;-73
2022/12/04 04:10:57;;;;;;;;;;;;;;;11.33;69.24;101533.56;1261242;23;673;-73
2022/12/04 04:11:47;;;;;;;;;;;;;;;11.33;69.56;101538.03;1262040;23;622;-73
2022/12/04 04:12:38;;;;;;;;;;;;;;;11.33;68.99;101536.22;1261245;23;630;-73
2022/12/04 04:25:01;;;;;;;;;;;;;;;11.32;69.68;101542.50;1262038;23;931;-73
2022/12/04 04:25:51;;;;;;;;;;;;;;;11.32;69.41;101538.97;1261205;23;630;-73
2022/12/04 04:26:42;;;;;;;;;;;;;;;11.31;69.42;101548.78;1261138;23;663;-73
2022/12/04 04:27:32;;;;;;;;;;;;;;;11.32;68.54;101542.50;1260590;23;607;-73
2022/12/04 04:28:23;;;;;;;;;;;;;;;11.34;68.45;101537.09;1261105;23;670;-73
2022/12/04 04:29:13;;;;;;;;;;;;;;;11.33;68.54;101533.56;1261168;23;674;-73
2022/12/04 04:30:04;;;;;;;;;;;;;;;11.32;69.22;101536.31;1261290;23;646;-73
2022/12/04 04:30:54;;;;;;;;;;;;;;;11.33;68.73;101532.69;1261121;23;638;-73
2022/12/04 04:31:44;;;;;;;;;;;;;;;11.32;69.31;101526.50;1261200;23;634;-73
2022/12/04 04:32:35;;;;;;;;;;;;;;;11.31;68.90;101532.78;1261194;23;630;-73
2022/12/04 04:33:25;;;;;;;;;;;;;;;11.30;68.64;101531.06;1261149;23;626;-73
2022/12/04 04:34:16;;;;;;;;;;;;;;;11.30;68.74;101520.38;1261914;23;684;-73
2022/12/04 04:35:06;;;;;;;;;;;;;;;11.30;68.84;101525.72;1261159;23;638;-73
2022/12/04 04:35:56;;;;;;;;;;;;;;;11.28;68.82;101526.78;1261080;23;674;-73
2022/12/04 04:36:47;;;;;;;;;;;;;;;11.28;68.85;101524.97;1261144;23;673;-73
2022/12/04 04:37:37;;;;;;;;;;;;;;;11.28;69.36;101530.31;1261178;23;661;-74